• Join FlightAware (Why Join?)
  • Login
  • US Flag 
04:29AM EST


 

Airport Tracker/Info


-or-


 

Live Flight TrackerFlight Track Log ✈ UAL4234 ✈ 06-Apr-2013 ✈ KHRL - KIAH

Flight Track Log - Related Links

Times and Time Zones

All times are in EDT time to prevent confusion due to time zone crossing. See the UAL4234 flight status page for this flight to view local times or setup timezone preferences in your user account.

Time Position Orientation Groundspeed Altitude Reporting Facility
EDT Latitude Longitude Course Direction KTS MPH feet Rate Location/Type
08:19PM 26.2175 -97.6475 10° North 131 151 800  Level Houston Center
08:20PM 26.2308 -97.6156 65° Northeast 189 217 2,700 3,000 Climbing Houston Center
08:21PM 26.2708 -97.6150 North 228 262 4,700 2,820 Climbing Houston Center
08:22PM 26.4286 -97.6276 10° North  Level FlightAware Approximate
08:22PM 26.3447 -97.6067 North 262 302 7,400  Level Houston Center
08:23PM 26.4989 -97.6149 North  Level FlightAware Approximate
08:23PM 26.4231 -97.5983 North 281 323 9,800  Level Houston Center
08:24PM 26.5697 -97.6071 North  Level FlightAware Approximate
08:24PM 26.5197 -97.5883 North 330 380 11,100  Level Houston Center
08:25PM 26.6404 -97.5986 10° North  Level FlightAware Approximate
08:25PM 26.6189 -97.5767 North 378 435 13,200  Level Houston Center
08:26PM 26.7197 -97.5658 North 374 430 15,300 1,980 Climbing Houston Center
08:27PM 26.8308 -97.5544 North 374 430 17,300 1,860 Climbing Houston Center
08:28PM 26.9353 -97.5433 North 380 437 19,200 1,860 Climbing Houston Center
08:29PM 27.0392 -97.5328 North 383 441 21,200 1,980 Climbing Houston Center
08:30PM 27.1500 -97.5225 North 368 423 23,300 1,920 Climbing Houston Center
08:31PM 27.2531 -97.5081 North 375 432 25,200 1,740 Climbing Houston Center
08:32PM 27.3525 -97.4542 26° Northeast 395 455 26,900 840 Climbing Houston Center
08:33PM 27.4553 -97.3947 27° Northeast 414 476 27,000  Climbing Houston Center
08:34PM 27.5667 -97.3306 27° Northeast 441 507 27,000  Level Houston Center
08:35PM 27.6819 -97.2639 27° Northeast 460 529 27,000  Level Houston Center
08:36PM 27.7983 -97.1972 27° Northeast 468 539 27,000  Level Houston Center
08:37PM 27.9356 -97.1178 27° Northeast 471 542 27,000  Level Houston Center
08:38PM 28.0539 -97.0489 27° Northeast 476 548 27,000  Level Houston Center
08:39PM 28.1717 -96.9797 27° Northeast 477 549 27,000  Level Houston Center
08:40PM 28.2864 -96.9139 27° Northeast 465 535 27,000  Level Houston Center
08:41PM 28.3989 -96.8478 27° Northeast 459 528 27,000  Level Houston Center
08:42PM 28.5142 -96.7808 27° Northeast 463 533 27,000 -300 Level Houston Center
08:43PM 28.6297 -96.7125 27° Northeast 469 540 26,500 -840 Descending Houston Center
08:44PM 28.7439 -96.6450 27° Northeast 466 536 25,300 -1,500 Descending Houston Center
08:45PM 28.8789 -96.5656 27° Northeast 458 527 23,500 -1,920 Descending Houston Center
08:46PM 28.9886 -96.5003 27° Northeast 450 518 21,400 -2,160 Descending Houston Center
08:47PM 29.0953 -96.4358 28° Northeast 438 504 19,200 -2,220 Descending Houston Center
08:48PM 29.1950 -96.3778 27° Northeast 412 474 16,900 -2,340 Descending Houston Center
08:49PM 29.2861 -96.3225 28° Northeast 399 459 14,800 -2,400 Descending Houston Center
08:50PM 29.3839 -96.2639 28° Northeast 393 452 12,400 -2,160 Descending Houston Center
08:51PM 29.4881 -96.2042 27° Northeast 389 448 10,400 -1,200 Descending Houston Center
08:52PM 29.5653 -96.1283 40° Northeast 376 433 10,000 -240 Descending Houston Center
08:53PM 29.6172 -96.0242 60° Northeast 373 429 10,000  Level Houston Center
08:54PM 29.6792 -95.9078 58° Northeast 365 420 10,000 -540 Level Houston Center
08:55PM 29.7372 -95.8614 35° Northeast 273 314 9,000 -1,440 Descending Houston Center
08:56PM 29.7989 -95.7989 41° Northeast 289 333 7,400 -1,380 Descending Houston Center
08:57PM 29.8586 -95.7367 42° Northeast 288 331 6,300 -1,260 Descending Houston Center
08:58PM 29.9056 -95.6756 48° Northeast 266 306 5,000 -1,320 Descending Houston Center
08:58PM 29.9142 -95.6628 52° Northeast 277 319 4,800 -1,020 Descending Houston Center
08:59PM 29.9519 -95.6075 52° Northeast 240 276 3,900 -1,020 Descending Houston Center
09:00PM 29.9869 -95.5528 54° Northeast 232 267 3,100 -900 Descending Houston Center